Terminal Aerodrome Forecast
Issued by NWS Corpus Christi, TX

Home | Current Version | Previous Version | Text Only | Print | Product List | Glossary On
Versions: 1 2 3 4 5 6 7 8 9 10 11 12 13 14 15 16
000
FTUS44 KCRP 301700
TAFCRP
TAF
KCRP 301732Z 3018/3118 10006KT P6SM FEW012 SCT035 BKN150
     FM310800 VRB06KT P6SM SCT025 BKN120 PROB30 3110/3116 4SM TSRA
      BR BKN025CB
     FM311600 16009KT P6SM SCT030 BKN120=

USA.gov is the U.S. government's official web portal to all federal, state and local government web resources and services.